createdAt,value
2017-11-18T00:00:26.532Z,33.80
2017-11-18T00:02:54.048Z,33.70
2017-11-18T00:05:21.577Z,29.03
2017-11-18T00:07:49.128Z,31.40
2017-11-18T00:10:16.639Z,32.57
2017-11-18T00:12:44.686Z,35.63
2017-11-18T00:15:12.363Z,35.40
2017-11-18T00:17:40.400Z,32.20
2017-11-18T00:20:07.904Z,33.87
2017-11-18T00:22:35.679Z,33.40
2017-11-18T00:25:03.222Z,32.13
2017-11-18T00:27:30.740Z,30.27
2017-11-18T00:29:58.330Z,30.30
2017-11-18T00:32:25.840Z,31.37
2017-11-18T00:34:53.343Z,30.70
2017-11-18T00:37:21.035Z,30.47
2017-11-18T00:39:48.539Z,30.70
2017-11-18T00:42:16.048Z,33.50
2017-11-18T00:44:44.092Z,34.07
2017-11-18T00:47:11.603Z,34.77
2017-11-18T00:49:40.020Z,34.77
2017-11-18T00:52:07.537Z,33.47
2017-11-18T00:54:35.839Z,34.00
2017-11-18T00:57:03.396Z,30.37
2017-11-18T00:59:31.264Z,31.33
2017-11-18T01:01:58.767Z,30.67
2017-11-18T01:04:26.405Z,34.83
2017-11-18T01:06:53.913Z,32.60
2017-11-18T01:09:21.437Z,34.37
2017-11-18T01:11:49.097Z,34.97
2017-11-18T01:14:16.604Z,33.57
2017-11-18T01:16:44.116Z,32.43
2017-11-18T01:21:44.953Z,34.00
2017-11-18T01:24:12.493Z,32.17
2017-11-18T01:26:40.081Z,30.77
2017-11-18T01:29:07.597Z,33.20
2017-11-18T01:31:35.162Z,31.60
2017-11-18T01:34:02.781Z,33.60
2017-11-18T01:36:30.288Z,35.97
2017-11-18T01:38:57.805Z,35.27
2017-11-18T01:41:25.410Z,30.17
2017-11-18T01:43:52.694Z,29.97
2017-11-18T01:46:20.321Z,30.97
2017-11-18T01:48:48.172Z,33.50
2017-11-18T01:51:16.052Z,34.43
2017-11-18T01:53:43.553Z,32.10
2017-11-18T01:56:11.121Z,31.33
2017-11-18T01:58:38.633Z,32.67
2017-11-18T02:01:06.149Z,33.00
2017-11-18T02:03:34.620Z,31.10
2017-11-18T02:06:02.125Z,32.27
2017-11-18T02:08:29.624Z,29.20
2017-11-18T02:10:57.202Z,28.60
2017-11-18T02:13:24.717Z,30.07
2017-11-18T02:15:51.989Z,34.57
2017-11-18T02:18:19.540Z,33.80
2017-11-18T02:20:47.060Z,29.70
2017-11-18T02:23:14.576Z,29.70
2017-11-18T02:25:42.253Z,28.80
2017-11-18T02:28:09.790Z,29.23
2017-11-18T02:30:37.297Z,29.80
2017-11-18T02:33:05.631Z,29.80
2017-11-18T02:35:33.153Z,31.27
2017-11-18T02:38:00.655Z,30.60
2017-11-18T02:40:28.220Z,33.07
2017-11-18T02:42:55.788Z,36.10
2017-11-18T02:45:23.298Z,35.20
2017-11-18T02:47:50.946Z,39.77
2017-11-18T02:50:18.456Z,38.43
2017-11-18T02:52:45.976Z,37.43
2017-11-18T02:55:13.616Z,37.07
2017-11-18T02:57:41.124Z,36.07
2017-11-18T03:00:08.636Z,34.10
2017-11-18T03:02:36.532Z,36.90
2017-11-18T03:05:04.816Z,37.47
2017-11-18T03:07:33.096Z,36.33
2017-11-18T03:10:00.918Z,37.73
2017-11-18T03:12:28.648Z,35.83
2017-11-18T03:14:56.434Z,35.87
2017-11-18T03:17:24.109Z,34.20
2017-11-18T03:19:51.616Z,36.70
2017-11-18T03:22:19.128Z,32.27
2017-11-18T03:24:46.682Z,33.07
2017-11-18T03:27:14.198Z,37.10
2017-11-18T03:29:41.712Z,34.00
2017-11-18T03:32:09.315Z,33.90
2017-11-18T03:34:37.456Z,32.90
2017-11-18T03:37:04.979Z,37.07
2017-11-18T03:39:32.524Z,32.77
2017-11-18T03:42:00.032Z,32.10
2017-11-18T03:44:27.733Z,34.10
2017-11-18T03:46:55.342Z,34.03
2017-11-18T03:49:23.017Z,35.07
2017-11-18T03:51:50.526Z,33.80
2017-11-18T03:54:18.088Z,34.80
2017-11-18T03:56:46.213Z,32.77
2017-11-18T03:59:13.721Z,33.90
2017-11-18T04:01:41.291Z,34.27
2017-11-18T04:04:08.800Z,34.87
2017-11-18T04:06:36.313Z,35.63
2017-11-18T04:09:04.648Z,34.37
2017-11-18T04:11:32.152Z,29.43
2017-11-18T04:13:59.664Z,30.97
2017-11-18T04:16:27.216Z,28.90
2017-11-18T04:18:54.485Z,30.00
2017-11-18T04:21:21.993Z,30.33
2017-11-18T04:23:49.547Z,25.63
2017-11-18T04:26:17.328Z,26.93
2017-11-18T04:28:44.833Z,28.57
2017-11-18T04:31:12.364Z,27.17
2017-11-18T04:33:40.634Z,26.70
2017-11-18T04:36:08.137Z,27.63
2017-11-18T04:38:35.699Z,25.90
2017-11-18T04:41:03.213Z,26.47
2017-11-18T04:43:30.738Z,25.97
2017-11-18T04:45:58.411Z,30.27
2017-11-18T04:48:26.209Z,28.47
2017-11-18T04:50:53.752Z,29.00
2017-11-18T04:53:21.859Z,27.57
2017-11-18T04:55:49.365Z,27.30
2017-11-18T04:58:16.879Z,26.90
2017-11-18T05:00:44.417Z,29.30
2017-11-18T05:03:11.928Z,31.63
2017-11-18T05:05:40.200Z,27.93
2017-11-18T05:08:07.794Z,27.57
2017-11-18T05:10:35.293Z,29.20
2017-11-18T05:13:02.804Z,26.20
2017-11-18T05:15:30.128Z,28.70
2017-11-18T05:17:57.636Z,26.50
2017-11-18T05:20:25.143Z,26.53
2017-11-18T05:22:52.700Z,28.30
2017-11-18T05:25:20.212Z,30.10
2017-11-18T05:27:47.724Z,29.60
2017-11-18T05:30:15.382Z,26.87
2017-11-18T05:32:42.923Z,30.53
2017-11-18T05:35:10.428Z,30.20
2017-11-18T05:37:38.091Z,27.70
2017-11-18T05:40:05.622Z,30.20
2017-11-18T05:42:33.141Z,30.60
2017-11-18T05:45:00.705Z,29.53
2017-11-18T05:47:28.217Z,27.50
2017-11-18T05:49:55.716Z,28.60
2017-11-18T05:52:23.280Z,30.13
2017-11-18T05:54:50.785Z,30.23
2017-11-18T05:57:18.283Z,33.50
2017-11-18T05:59:47.304Z,30.43
2017-11-18T06:02:14.813Z,29.90
2017-11-18T06:04:42.318Z,29.97
2017-11-18T06:07:09.861Z,27.17
2017-11-18T06:09:37.370Z,29.67
2017-11-18T06:12:05.841Z,30.37
2017-11-18T06:14:33.424Z,34.20
2017-11-18T06:17:00.937Z,32.43
2017-11-18T06:19:28.451Z,32.90
2017-11-18T06:21:56.020Z,32.87
2017-11-18T06:24:23.554Z,34.00
2017-11-18T06:26:51.075Z,36.80
2017-11-18T06:29:18.721Z,31.43
2017-11-18T06:31:46.237Z,28.07
2017-11-18T06:34:13.753Z,30.97
2017-11-18T06:36:41.323Z,31.17
2017-11-18T06:39:08.860Z,29.27
2017-11-18T06:41:36.395Z,27.50
2017-11-18T06:44:03.956Z,27.27
2017-11-18T06:46:31.468Z,29.20
2017-11-18T06:48:58.976Z,27.80
2017-11-18T06:51:26.569Z,30.80
2017-11-18T06:53:54.081Z,28.03
2017-11-18T06:56:21.884Z,29.37
2017-11-18T06:58:49.470Z,24.43
2017-11-18T07:01:17.716Z,25.20
2017-11-18T07:03:45.247Z,25.70
2017-11-18T07:06:12.844Z,22.90
2017-11-18T07:08:40.176Z,23.33
2017-11-18T07:11:07.684Z,23.03
2017-11-18T07:13:35.200Z,28.07
2017-11-18T07:16:02.537Z,23.73
2017-11-18T07:18:30.567Z,44.57
2017-11-18T07:20:58.843Z,22.60
2017-11-18T07:23:26.441Z,22.67
2017-11-18T07:25:53.950Z,21.97
2017-11-18T07:28:22.472Z,21.63
2017-11-18T07:30:49.975Z,22.17
2017-11-18T07:33:17.479Z,21.93
2017-11-18T07:35:45.024Z,21.53
2017-11-18T07:38:12.536Z,22.37
2017-11-18T07:40:40.048Z,21.67
2017-11-18T07:43:07.705Z,18.03
2017-11-18T07:45:35.210Z,20.37
2017-11-18T07:48:03.289Z,19.97
2017-11-18T07:50:30.794Z,15.33
2017-11-18T07:52:58.296Z,18.93
2017-11-18T07:55:25.950Z,16.90
2017-11-18T07:57:53.931Z,19.23
2017-11-18T08:00:21.440Z,14.60
2017-11-18T08:02:49.083Z,18.00
2017-11-18T08:05:16.588Z,20.20
2017-11-18T08:07:45.400Z,18.97
2017-11-18T08:10:12.958Z,13.67
2017-11-18T08:12:40.456Z,17.17
2017-11-18T08:15:07.960Z,14.80
2017-11-18T08:17:36.032Z,11.43
2017-11-18T08:20:04.117Z,14.90
2017-11-18T08:22:32.791Z,13.97
2017-11-18T08:25:00.344Z,12.90
2017-11-18T08:27:27.852Z,13.20
2017-11-18T08:29:56.124Z,14.80
2017-11-18T08:32:24.455Z,19.67
2017-11-18T08:34:51.956Z,16.60
2017-11-18T08:37:19.469Z,16.63
2017-11-18T08:39:47.019Z,16.03
2017-11-18T08:42:14.537Z,17.40
2017-11-18T08:44:42.049Z,15.90
2017-11-18T08:47:09.603Z,17.53
2017-11-18T08:49:37.200Z,17.63
2017-11-18T08:52:04.704Z,17.80
2017-11-18T08:54:32.270Z,17.10
2017-11-18T08:56:59.798Z,16.10
2017-11-18T08:59:28.077Z,16.33
2017-11-18T09:01:56.397Z,19.37
2017-11-18T09:04:23.917Z,16.93
2017-11-18T09:06:51.429Z,18.40
2017-11-18T09:09:18.991Z,19.43
2017-11-18T09:11:46.497Z,19.63
2017-11-18T09:14:13.995Z,18.80
2017-11-18T09:16:41.544Z,15.20
2017-11-18T09:19:09.072Z,14.50
2017-11-18T09:21:36.598Z,14.70
2017-11-18T09:24:04.167Z,16.07
2017-11-18T09:26:31.678Z,16.70
2017-11-18T09:28:59.188Z,15.00
2017-11-18T09:31:27.500Z,12.10
2017-11-18T09:33:55.012Z,11.73
2017-11-18T09:36:22.542Z,15.97
2017-11-18T09:38:50.101Z,13.57
2017-11-18T09:41:17.612Z,14.33
2017-11-18T09:43:45.113Z,14.70
2017-11-18T09:46:12.988Z,15.93
2017-11-18T09:48:40.492Z,16.97
2017-11-18T09:51:08.779Z,16.77
2017-11-18T09:53:36.348Z,14.73
2017-11-18T09:56:03.855Z,15.57
2017-11-18T09:58:31.357Z,13.30
2017-11-18T10:00:58.903Z,10.33
2017-11-18T10:03:26.408Z,10.60
2017-11-18T10:05:53.912Z,8.70
2017-11-18T10:08:21.455Z,6.63
2017-11-18T10:10:48.956Z,7.13
2017-11-18T10:13:16.468Z,6.43
2017-11-18T10:15:44.034Z,9.10
2017-11-18T10:18:11.536Z,7.37
2017-11-18T10:20:39.047Z,8.60
2017-11-18T10:23:06.586Z,10.73
2017-11-18T10:25:34.092Z,10.27
2017-11-18T10:28:01.596Z,8.63
2017-11-18T10:30:29.147Z,7.00
2017-11-18T10:32:56.662Z,7.43
2017-11-18T10:35:24.171Z,6.93
2017-11-18T10:37:51.733Z,6.87
2017-11-18T10:40:19.243Z,7.97
2017-11-18T10:42:46.752Z,6.43
2017-11-18T10:45:14.297Z,8.60
2017-11-18T10:47:41.800Z,8.00
2017-11-18T10:50:09.302Z,8.10
2017-11-18T10:52:36.612Z,8.03
2017-11-18T10:55:04.121Z,9.17
2017-11-18T10:57:31.666Z,8.03
2017-11-18T10:59:59.499Z,7.50
2017-11-18T11:02:27.000Z,9.63
2017-11-18T11:04:54.510Z,7.50
2017-11-18T11:07:22.068Z,7.90
2017-11-18T11:09:49.573Z,7.70
2017-11-18T11:12:17.079Z,8.27
2017-11-18T11:14:45.043Z,7.70
2017-11-18T11:17:12.631Z,6.73
2017-11-18T11:19:40.897Z,5.00
2017-11-18T11:22:08.455Z,5.83
2017-11-18T11:24:35.956Z,5.33
2017-11-18T11:27:03.452Z,5.60
2017-11-18T11:29:31.007Z,5.03
2017-11-18T11:31:58.515Z,6.43
2017-11-18T11:34:26.014Z,5.70
2017-11-18T11:36:53.576Z,4.83
2017-11-18T11:39:21.077Z,4.03
2017-11-18T11:41:48.573Z,6.03
2017-11-18T11:44:16.201Z,4.97
2017-11-18T11:46:43.707Z,6.23
2017-11-18T11:49:11.224Z,7.50
2017-11-18T11:51:38.881Z,8.17
2017-11-18T11:54:07.168Z,11.90
2017-11-18T11:56:35.433Z,9.20
2017-11-18T11:59:04.079Z,9.73
2017-11-18T12:01:31.584Z,9.50
2017-11-18T12:03:59.849Z,9.17
2017-11-18T12:06:28.168Z,10.07
2017-11-18T12:08:55.668Z,12.83
2017-11-18T12:11:23.168Z,10.53
2017-11-18T12:13:50.728Z,12.50
2017-11-18T12:16:18.228Z,9.20
2017-11-18T12:18:45.728Z,8.43
2017-11-18T12:21:13.836Z,9.10
2017-11-18T12:23:41.337Z,11.47
2017-11-18T12:26:09.539Z,9.37
2017-11-18T12:28:37.095Z,11.23
2017-11-18T12:31:05.372Z,8.73
2017-11-18T12:33:33.648Z,11.40
2017-11-18T12:36:01.973Z,11.27
2017-11-18T12:38:29.475Z,7.67
2017-11-18T12:40:56.867Z,9.60
2017-11-18T12:43:24.403Z,7.90
2017-11-18T12:45:51.901Z,9.50
2017-11-18T12:48:19.407Z,6.87
2017-11-18T12:50:47.077Z,7.30
2017-11-18T12:53:14.587Z,6.80
2017-11-18T12:55:42.096Z,7.13
2017-11-18T12:58:09.741Z,6.90
2017-11-18T13:00:37.248Z,5.40
2017-11-18T13:03:04.755Z,6.30
2017-11-18T13:05:32.406Z,5.47
2017-11-18T13:07:59.917Z,5.63
2017-11-18T13:10:27.420Z,4.90
2017-11-18T13:12:54.977Z,6.40
2017-11-18T13:15:22.489Z,5.40
2017-11-18T13:17:50.002Z,5.33
2017-11-18T13:20:17.537Z,6.73
2017-11-18T13:22:45.039Z,6.70
2017-11-18T13:25:13.309Z,8.10
2017-11-18T13:27:41.624Z,7.47
2017-11-18T13:30:09.132Z,6.43
2017-11-18T13:32:36.628Z,6.33
2017-11-18T13:35:04.276Z,7.07
2017-11-18T13:37:31.780Z,8.47
2017-11-18T13:39:59.292Z,7.80
2017-11-18T13:42:27.609Z,6.13
2017-11-18T13:44:55.114Z,7.73
2017-11-18T13:47:22.621Z,7.03
2017-11-18T13:49:50.176Z,7.50
2017-11-18T13:52:17.691Z,7.23
2017-11-18T13:54:45.188Z,6.63
2017-11-18T13:57:13.569Z,6.93
2017-11-18T13:59:41.069Z,6.80
2017-11-18T14:02:08.571Z,5.77
2017-11-18T14:04:36.123Z,6.00
2017-11-18T14:07:04.390Z,7.90
2017-11-18T14:09:32.660Z,6.37
2017-11-18T14:12:00.956Z,7.37
2017-11-18T14:14:28.455Z,6.33
2017-11-18T14:16:55.961Z,7.50
2017-11-18T14:19:23.276Z,7.17
2017-11-18T14:21:50.792Z,7.80
2017-11-18T14:24:18.300Z,6.70
2017-11-18T14:26:45.877Z,6.47
2017-11-18T14:29:13.380Z,8.70
2017-11-18T14:31:40.879Z,6.50
2017-11-18T14:34:08.512Z,6.33
2017-11-18T14:36:36.021Z,7.10
2017-11-18T14:39:03.539Z,6.57
2017-11-18T14:41:31.208Z,7.17
2017-11-18T14:43:58.716Z,7.60
2017-11-18T14:46:26.220Z,7.80
2017-11-18T14:48:53.752Z,8.10
2017-11-18T14:51:21.192Z,6.77
2017-11-18T14:53:48.594Z,7.87
2017-11-18T14:56:16.148Z,5.53
2017-11-18T14:58:43.668Z,7.77
2017-11-18T15:01:11.152Z,8.27
2017-11-18T15:03:38.655Z,8.50
2017-11-18T15:06:06.183Z,9.30
2017-11-18T15:08:33.728Z,8.60
2017-11-18T15:11:01.234Z,9.60
2017-11-18T15:13:28.737Z,8.40
2017-11-18T15:29:31.043Z,8.40
2017-11-18T15:32:18.207Z,8.70
2017-11-18T15:34:51.280Z,6.93
2017-11-18T15:37:27.925Z,8.87
2017-11-18T15:39:55.479Z,8.83
2017-11-18T15:42:22.979Z,9.40
2017-11-18T15:45:05.409Z,11.57
2017-11-18T15:47:48.586Z,8.33
2017-11-18T15:50:21.615Z,6.63
2017-11-18T16:06:26.420Z,5.20
2017-11-18T16:08:53.921Z,9.00
2017-11-18T16:11:21.427Z,5.13
2017-11-18T16:13:49.737Z,5.77
2017-11-18T16:16:17.240Z,5.47
2017-11-18T16:18:44.742Z,7.00
2017-11-18T16:21:12.300Z,7.23
2017-11-18T16:23:39.809Z,5.70
2017-11-18T16:26:07.311Z,4.53
2017-11-18T16:28:34.855Z,5.77
2017-11-18T16:31:02.352Z,6.63
2017-11-18T16:33:29.861Z,4.10
2017-11-18T16:35:57.416Z,6.33
2017-11-18T16:38:24.920Z,6.77
2017-11-18T16:40:52.423Z,6.90
2017-11-18T16:43:20.312Z,5.47
2017-11-18T16:45:47.813Z,6.23
2017-11-18T16:48:15.312Z,5.30
2017-11-18T16:50:42.859Z,6.20
2017-11-18T16:53:10.360Z,6.47
2017-11-18T16:55:37.868Z,6.10
2017-11-18T16:58:05.413Z,7.20
2017-11-18T17:00:32.926Z,7.10
2017-11-18T17:03:00.425Z,6.63
2017-11-18T17:05:27.981Z,7.20
2017-11-18T17:07:55.513Z,6.70
2017-11-18T17:10:23.016Z,7.13
2017-11-18T17:12:50.563Z,7.33
2017-11-18T17:15:18.197Z,7.73
2017-11-18T17:17:45.859Z,7.13
2017-11-18T17:20:14.121Z,8.87
2017-11-18T17:22:41.629Z,8.37
2017-11-18T17:25:09.252Z,8.10
2017-11-18T17:27:37.523Z,10.10
2017-11-18T17:30:05.809Z,8.60
2017-11-18T17:32:33.444Z,8.47
2017-11-18T17:35:00.960Z,10.37
2017-11-18T17:37:28.472Z,10.63
2017-11-18T17:39:56.017Z,8.77
2017-11-18T17:42:23.549Z,8.93
2017-11-18T17:44:51.048Z,9.17
2017-11-18T17:47:18.621Z,10.37
2017-11-18T17:49:46.142Z,8.87
2017-11-18T17:52:13.649Z,8.97
2017-11-18T17:54:41.180Z,9.57
2017-11-18T17:57:09.459Z,10.47
2017-11-18T17:59:37.150Z,10.40
2017-11-18T18:02:04.843Z,11.20
2017-11-18T18:04:32.353Z,9.80
2017-11-18T18:06:59.879Z,9.60
2017-11-18T18:09:27.391Z,11.80
2017-11-18T18:11:54.950Z,10.80
2017-11-18T18:14:22.457Z,10.90
2017-11-18T18:16:49.960Z,9.93
2017-11-18T18:19:17.495Z,9.17
2017-11-18T18:21:45.000Z,10.60
2017-11-18T18:24:12.636Z,10.97
2017-11-18T18:26:40.186Z,10.63
2017-11-18T18:29:08.492Z,9.90
2017-11-18T18:31:36.188Z,8.17
2017-11-18T18:34:03.712Z,9.30
2017-11-18T18:36:31.220Z,10.50
2017-11-18T18:38:58.747Z,9.67
2017-11-18T18:41:26.268Z,8.90
2017-11-18T18:43:53.776Z,9.63
2017-11-18T18:46:21.349Z,8.83
2017-11-18T18:48:48.853Z,8.77
2017-11-18T18:51:16.496Z,7.70
2017-11-18T18:53:44.035Z,8.27
2017-11-18T18:56:11.591Z,7.47
2017-11-18T18:58:39.291Z,8.43
2017-11-18T19:01:06.794Z,7.80
2017-11-18T19:03:34.299Z,7.93
2017-11-18T19:06:02.597Z,7.80
2017-11-18T19:08:30.104Z,7.50
2017-11-18T19:10:57.612Z,9.03
2017-11-18T19:13:25.141Z,9.00
2017-11-18T19:15:53.440Z,7.70
2017-11-18T19:18:21.700Z,8.23
2017-11-18T19:20:50.017Z,9.13
2017-11-18T19:23:17.548Z,7.63
2017-11-18T19:25:45.056Z,7.53
2017-11-18T19:28:12.949Z,8.40
2017-11-18T19:30:41.228Z,8.00
2017-11-18T19:33:09.491Z,8.07
2017-11-18T19:35:37.116Z,7.77
2017-11-18T19:38:04.616Z,8.77
2017-11-18T19:40:32.040Z,10.40
2017-11-18T19:43:00.409Z,7.60
2017-11-18T19:45:27.911Z,8.03
2017-11-18T19:47:55.456Z,7.80
2017-11-18T19:50:22.956Z,9.10
2017-11-18T19:52:50.547Z,8.33
2017-11-18T19:55:18.757Z,7.80
2017-11-18T19:57:46.601Z,9.20
2017-11-18T20:00:14.143Z,8.57
2017-11-18T20:02:43.587Z,10.70
2017-11-18T20:05:11.589Z,8.60
2017-11-18T20:07:39.101Z,8.83
2017-11-18T20:10:07.248Z,8.97
2017-11-18T20:12:34.836Z,9.03
2017-11-18T20:15:02.335Z,7.03
2017-11-18T20:17:29.876Z,7.07
2017-11-18T20:19:57.383Z,7.47
2017-11-18T20:22:24.889Z,7.07
2017-11-18T20:24:53.209Z,9.13
2017-11-18T20:27:20.727Z,7.60
2017-11-18T20:29:48.246Z,9.00
2017-11-18T20:32:16.138Z,7.60
2017-11-18T20:34:44.649Z,8.50
2017-11-18T20:37:12.165Z,9.87
2017-11-18T20:39:40.096Z,6.90
2017-11-18T20:42:08.240Z,7.60
2017-11-18T20:44:35.757Z,7.83
2017-11-18T20:47:03.609Z,8.53
2017-11-18T20:49:31.128Z,8.10
2017-11-18T20:51:58.632Z,7.20
2017-11-18T20:54:26.651Z,7.73
2017-11-18T20:56:54.257Z,8.50
2017-11-18T20:59:21.768Z,7.77
2017-11-18T21:01:49.336Z,8.73
2017-11-18T21:04:16.982Z,8.50
2017-11-18T21:06:44.484Z,7.30
2017-11-18T21:09:12.008Z,7.30
2017-11-18T21:11:40.275Z,7.43
2017-11-18T21:14:07.823Z,8.77
2017-11-18T21:16:35.337Z,8.10
2017-11-18T21:19:02.853Z,9.50
2017-11-18T21:21:30.403Z,9.20
2017-11-18T21:23:57.902Z,7.70
2017-11-18T21:26:26.411Z,11.03
2017-11-18T21:28:53.965Z,8.80
2017-11-18T21:31:21.461Z,8.80
2017-11-18T21:33:48.970Z,8.30
2017-11-18T21:36:17.022Z,6.83
2017-11-18T21:38:45.060Z,7.63
2017-11-18T21:41:13.159Z,7.00
2017-11-18T21:43:40.724Z,7.40
2017-11-18T21:46:10.008Z,8.20
2017-11-18T21:48:38.230Z,7.20
2017-11-18T21:51:05.787Z,6.03
2017-11-18T21:53:33.809Z,6.10
2017-11-18T21:56:02.454Z,7.23
2017-11-18T21:58:30.757Z,7.40
2017-11-18T22:00:58.669Z,7.87
2017-11-18T22:03:27.264Z,8.53
2017-11-18T22:05:55.268Z,7.80
2017-11-18T22:08:22.767Z,7.10
2017-11-18T22:10:50.287Z,7.90
2017-11-18T22:13:17.929Z,7.67
2017-11-18T22:15:45.429Z,6.97
2017-11-18T22:18:12.923Z,7.40
2017-11-18T22:20:40.833Z,7.23
2017-11-18T22:23:09.384Z,8.40
2017-11-18T22:25:37.670Z,8.77
2017-11-18T22:28:05.172Z,8.70
2017-11-18T22:30:32.677Z,8.00
2017-11-18T22:33:00.301Z,7.63
2017-11-18T22:35:29.408Z,6.80
2017-11-18T22:37:57.345Z,5.87
2017-11-18T22:40:25.894Z,7.20
2017-11-18T22:42:53.703Z,7.70
2017-11-18T22:45:21.932Z,8.13
2017-11-18T22:47:49.849Z,9.00
2017-11-18T22:50:17.372Z,8.03
2017-11-18T22:52:45.187Z,8.57
2017-11-18T22:55:13.101Z,8.23
2017-11-18T22:57:40.629Z,9.60
2017-11-18T23:00:08.137Z,7.63
2017-11-18T23:02:35.716Z,6.97
2017-11-18T23:05:03.222Z,8.60
2017-11-18T23:07:30.749Z,7.23
2017-11-18T23:09:58.629Z,7.30
2017-11-18T23:12:26.131Z,7.00
2017-11-18T23:14:53.641Z,7.60
2017-11-18T23:17:21.313Z,6.20
2017-11-18T23:19:49.404Z,6.90
2017-11-18T23:22:16.904Z,7.53
2017-11-18T23:24:44.459Z,5.87
2017-11-18T23:27:11.960Z,6.70
2017-11-18T23:29:39.652Z,7.50
2017-11-18T23:32:07.213Z,6.10
2017-11-18T23:34:34.717Z,8.00
2017-11-18T23:37:03.392Z,6.37
2017-11-18T23:39:31.176Z,6.70
2017-11-18T23:41:59.452Z,5.80
2017-11-18T23:44:26.965Z,8.23
2017-11-18T23:46:54.532Z,6.77
2017-11-18T23:49:22.032Z,7.30
2017-11-18T23:51:50.319Z,7.87
2017-11-18T23:54:18.837Z,6.67
2017-11-18T23:56:46.353Z,7.13
2017-11-18T23:59:13.857Z,8.00
